Time;durP1;ratioP1;P1;durP2;ratioP2;P2;SDS_P1;SDS_P2;PMS_P1;PMS_P2;Temp;Humidity;BMP_temperature;BMP_pressure;BME280_temperature;BME280_humidity;BME280_pressure;Samples;Min_cycle;Max_cycle;Signal;HPM_P1;HPM_P2
2022/07/20 00:00:35;;;;;;;9.02;3.92;;;25.30;81.60;;;;;;4902653;29;20040;-72
2022/07/20 00:03:06;;;;;;;5.47;4.32;;;24.90;71.20;;;;;;4880707;29;20076;-73
2022/07/20 00:05:32;;;;;;;6.57;3.80;;;24.30;81.40;;;;;;4882727;29;20515;-73
2022/07/20 00:07:58;;;;;;;6.60;4.10;;;;;;;;;;4882971;29;20060;-73
2022/07/20 00:13:08;;;;;;;9.27;4.30;;;23.90;80.90;;;;;;4908574;29;20044;-73
2022/07/20 00:15:33;;;;;;;6.43;4.00;;;23.70;80.70;;;;;;4908349;29;20044;-73
2022/07/20 00:17:59;;;;;;;7.90;4.22;;;25.70;81.70;;;;;;4882856;29;20386;-73
2022/07/20 00:20:25;;;;;;;6.50;4.03;;;24.80;73.40;;;;;;4882786;29;20060;-73
2022/07/20 00:22:51;;;;;;;12.40;4.10;;;24.40;80.90;;;;;;4906053;29;20116;-73
2022/07/20 00:25:16;;;;;;;5.22;3.83;;;24.50;80.90;;;;;;4867355;29;20370;-73
2022/07/20 00:27:42;;;;;;;9.55;4.00;;;24.30;80.90;;;;;;4899480;29;20598;-73
2022/07/20 00:30:09;;;;;;;10.18;4.03;;;25.40;81.70;;;;;;4899106;29;20036;-73
2022/07/20 00:32:38;;;;;;;8.48;4.10;;;24.60;70.70;;;;;;4908166;29;20048;-73
2022/07/20 00:35:10;;;;;;;6.53;3.95;;;23.30;72.00;;;;;;4896313;29;20374;-73
2022/07/20 00:37:36;;;;;;;8.82;3.97;;;25.10;81.90;;;;;;4881491;29;20387;-73
2022/07/20 00:40:03;;;;;;;6.80;4.57;;;24.90;82.00;;;;;;4912677;29;20041;-73
2022/07/20 00:42:29;;;;;;;8.80;4.22;;;24.80;82.00;;;;;;4866416;29;20044;-73
2022/07/20 00:44:55;;;;;;;8.95;3.95;;;24.50;81.90;;;;;;4882322;29;20051;-73
2022/07/20 00:47:21;;;;;;;14.07;4.00;;;23.70;73.70;;;;;;4898851;29;20051;-73
2022/07/20 00:49:47;;;;;;;10.40;4.03;;;24.10;81.70;;;;;;4882313;29;20044;-73
2022/07/20 00:52:13;;;;;;;10.80;4.20;;;24.20;72.60;;;;;;4882149;29;20453;-73
2022/07/20 00:54:39;;;;;;;8.65;4.00;;;24.20;74.00;;;;;;4882120;29;20036;-73
2022/07/20 00:57:05;;;;;;;9.55;4.53;;;25.00;82.90;;;;;;4903483;29;20478;-73
2022/07/20 00:59:31;;;;;;;6.65;4.45;;;25.00;82.80;;;;;;4882160;29;20052;-73
2022/07/20 01:01:57;;;;;;;9.32;3.97;;;24.10;82.40;;;;;;4898432;29;20095;-73
2022/07/20 01:04:23;;;;;;;9.07;4.53;;;;;;;;;;4881870;29;20047;-73
2022/07/20 01:06:49;;;;;;;10.90;4.40;;;24.60;82.90;;;;;;4881586;29;20041;-73
2022/07/20 01:09:17;;;;;;;5.60;3.78;;;24.30;82.80;;;;;;4912678;29;20040;-73
2022/07/20 01:11:44;;;;;;;9.38;3.90;;;24.20;82.90;;;;;;4898114;29;20060;-73
2022/07/20 01:14:10;;;;;;;9.65;4.35;;;23.10;82.20;;;;;;4898413;29;20393;-73
2022/07/20 01:16:37;;;;;;;6.93;4.25;;;24.10;74.60;;;;;;4902160;29;20036;-73
2022/07/20 01:19:05;;;;;;;8.98;4.55;;;24.80;83.40;;;;;;4881509;29;20083;-73
2022/07/20 01:21:31;;;;;;;7.82;4.05;;;23.70;82.80;;;;;;4881072;29;20112;-73
2022/07/20 01:23:56;;;;;;;13.98;4.43;;;24.30;83.10;;;;;;4881130;29;20040;-73
2022/07/20 01:26:23;;;;;;;9.95;4.57;;;;;;;;;;4894218;29;20041;-72
2022/07/20 01:28:49;;;;;;;6.22;4.15;;;24.70;83.30;;;;;;4894946;29;20044;-72
2022/07/20 01:31:15;;;;;;;9.75;4.40;;;;;;;;;;4881143;29;20050;-72
2022/07/20 01:33:41;;;;;;;8.50;4.25;;;24.50;76.00;;;;;;4880955;29;20055;-73
2022/07/20 01:36:07;;;;;;;14.85;4.53;;;24.40;83.40;;;;;;4898214;29;20040;-73
2022/07/20 01:38:33;;;;;;;11.25;4.38;;;22.60;82.40;;;;;;4894930;29;20036;-73
2022/07/20 01:40:58;;;;;;;7.82;4.22;;;23.30;82.70;;;;;;4881147;29;20055;-72
2022/07/20 01:43:24;;;;;;;9.27;4.07;;;;;;;;;;4897843;29;20401;-72
2022/07/20 01:45:50;;;;;;;8.52;4.25;;;;;;;;;;4881184;29;20044;-72
2022/07/20 01:48:16;;;;;;;7.07;4.38;;;23.50;83.40;;;;;;4880579;29;20040;-72
2022/07/20 01:50:42;;;;;;;9.45;4.28;;;24.30;83.90;;;;;;4880872;29;20047;-72
2022/07/20 01:53:08;;;;;;;9.07;4.38;;;;;;;;;;4884842;29;20054;-72
2022/07/20 01:55:34;;;;;;;12.00;4.30;;;22.90;83.40;;;;;;4880948;29;20493;-72
2022/07/20 01:58:00;;;;;;;8.60;4.60;;;23.40;83.80;;;;;;4897381;29;20123;-72
2022/07/20 02:00:26;;;;;;;5.65;4.25;;;;;;;;;;4911368;29;20132;-73
2022/07/20 02:02:52;;;;;;;10.88;4.70;;;23.30;84.00;;;;;;4880919;29;20063;-73
2022/07/20 02:05:19;;;;;;;8.10;4.80;;;22.70;83.60;;;;;;4873597;29;20485;-73
2022/07/20 02:07:45;;;;;;;6.30;4.15;;;23.70;84.20;;;;;;4880860;29;20071;-73
2022/07/20 02:10:13;;;;;;;8.70;4.55;;;23.80;84.40;;;;;;4878636;29;20056;-73
2022/07/20 02:12:39;;;;;;;12.07;5.03;;;24.10;84.40;;;;;;4880723;29;20501;-73
2022/07/20 02:15:08;;;;;;;8.50;4.38;;;23.80;84.20;;;;;;4880533;29;20076;-73
2022/07/20 02:17:34;;;;;;;9.63;4.63;;;24.10;84.50;;;;;;4880507;29;20051;-73
2022/07/20 02:20:00;;;;;;;8.82;4.65;;;22.40;84.00;;;;;;4880397;29;20048;-73
2022/07/20 02:22:27;;;;;;;11.35;4.70;;;;;;;;;;4880627;29;20049;-73
2022/07/20 02:24:53;;;;;;;12.68;5.90;;;22.00;83.50;;;;;;4880740;29;20047;-73
2022/07/20 02:27:19;;;;;;;9.82;4.50;;;23.40;84.20;;;;;;4897321;29;20036;-73
2022/07/20 02:29:44;;;;;;;7.43;4.55;;;22.60;84.00;;;;;;4880565;29;20051;-73
2022/07/20 02:32:10;;;;;;;14.20;5.40;;;24.00;84.90;;;;;;4880267;29;20393;-72
2022/07/20 02:34:36;;;;;;;9.50;4.63;;;22.40;84.10;;;;;;4880053;29;20078;-72
2022/07/20 02:37:02;;;;;;;17.08;4.90;;;;;;;;;;4893178;29;20075;-72
2022/07/20 02:39:28;;;;;;;10.40;5.10;;;23.80;85.20;;;;;;4897104;29;20036;-72
2022/07/20 02:41:53;;;;;;;8.80;4.65;;;23.50;85.30;;;;;;4896690;29;20047;-72
2022/07/20 02:44:19;;;;;;;12.40;5.50;;;22.20;84.30;;;;;;4880611;29;20039;-72
2022/07/20 02:46:45;;;;;;;8.00;4.75;;;;;;;;;;4880038;29;20045;-72
2022/07/20 02:49:11;;;;;;;8.25;5.00;;;;;;;;;;4880227;29;20500;-72
2022/07/20 02:51:37;;;;;;;18.10;5.30;;;21.70;84.00;;;;;;4880336;29;20048;-72
2022/07/20 02:54:03;;;;;;;6.82;5.30;;;23.90;85.30;;;;;;4880453;29;20542;-72
2022/07/20 02:56:29;;;;;;;7.35;5.28;;;;;;;;;;4880346;29;20079;-72
2022/07/20 02:58:55;;;;;;;8.48;5.13;;;22.50;84.90;;;;;;4880192;29;20127;-72
2022/07/20 03:01:20;;;;;;;10.52;5.03;;;23.40;80.90;;;;;;4881479;29;20464;-73
2022/07/20 03:03:46;;;;;;;12.77;5.28;;;23.40;85.90;;;;;;4868325;29;20112;-73
2022/07/20 03:06:12;;;;;;;9.32;4.82;;;22.90;86.00;;;;;;4883969;29;20037;-73
2022/07/20 03:08:38;;;;;;;11.75;4.63;;;;;;;;;;4913044;29;20036;-72
2022/07/20 03:11:03;;;;;;;7.45;4.60;;;22.10;85.10;;;;;;4868170;29;20092;-72
2022/07/20 03:13:29;;;;;;;8.00;4.88;;;21.40;84.60;;;;;;4912075;29;20102;-72
2022/07/20 03:15:55;;;;;;;5.93;5.10;;;23.60;86.20;;;;;;4905325;29;20064;-72
2022/07/20 03:18:21;;;;;;;11.40;4.57;;;;;;;;;;4906914;29;20096;-72
2022/07/20 03:20:46;;;;;;;11.23;4.90;;;23.60;86.40;;;;;;4868163;29;20109;-73
2022/07/20 03:23:12;;;;;;;11.02;5.18;;;22.70;86.10;;;;;;4893316;29;20481;-73
2022/07/20 03:25:38;;;;;;;9.00;5.15;;;21.60;85.70;;;;;;4883642;29;20083;-73
2022/07/20 03:28:04;;;;;;;13.40;5.00;;;22.80;86.30;;;;;;4883259;29;20466;-73
2022/07/20 03:30:30;;;;;;;8.55;5.35;;;22.30;76.90;;;;;;4913980;29;20107;-72
2022/07/20 03:32:56;;;;;;;11.65;5.10;;;23.40;86.90;;;;;;4867777;29;20136;-72
2022/07/20 03:35:23;;;;;;;11.13;4.90;;;21.50;86.00;;;;;;4883223;29;20048;-72
2022/07/20 03:37:48;;;;;;;14.13;5.70;;;22.90;87.10;;;;;;4883221;29;20056;-73
2022/07/20 03:40:14;;;;;;;8.40;5.53;;;;;;;;;;4883322;29;20048;-73
2022/07/20 03:42:40;;;;;;;10.98;5.20;;;21.30;86.40;;;;;;4882791;29;20077;-73
2022/07/20 03:45:07;;;;;;;9.18;5.53;;;21.40;86.50;;;;;;4903790;29;20072;-72
2022/07/20 03:47:33;;;;;;;9.88;5.30;;;22.20;86.80;;;;;;4883477;29;20056;-72
2022/07/20 03:49:59;;;;;;;7.50;4.95;;;22.10;87.80;;;;;;4883222;29;20100;-72
2022/07/20 03:52:25;;;;;;;13.68;5.80;;;22.60;87.00;;;;;;4899894;29;20040;-72
2022/07/20 03:54:51;;;;;;;7.90;4.57;;;23.10;87.10;;;;;;4883195;29;20044;-72
2022/07/20 03:57:17;;;;;;;11.38;5.10;;;;;;;;;;4899762;29;20056;-72
2022/07/20 03:59:43;;;;;;;9.15;5.30;;;21.70;86.20;;;;;;4882745;29;20389;-72
2022/07/20 04:02:09;;;;;;;13.93;5.25;;;21.50;86.00;;;;;;4880273;29;20056;-72
2022/07/20 04:04:35;;;;;;;7.13;5.43;;;;;;;;;;4883311;29;20036;-72
2022/07/20 04:07:01;;;;;;;8.27;4.65;;;21.70;82.60;;;;;;4882850;29;20068;-73
2022/07/20 04:09:46;;;;;;;9.30;5.47;;;;;;;;;;4882460;29;20117;-73
2022/07/20 04:12:23;;;;;;;10.43;5.82;;;23.00;86.60;;;;;;4881631;29;20446;-73
2022/07/20 04:14:51;;;;;;;8.88;5.30;;;23.20;86.90;;;;;;4899572;29;20204;-72
2022/07/20 04:17:18;;;;;;;12.82;5.47;;;21.40;86.00;;;;;;4882526;29;20045;-72
2022/07/20 04:19:44;;;;;;;8.82;5.28;;;;;;;;;;4908266;29;20040;-72
2022/07/20 04:22:10;;;;;;;11.07;5.47;;;21.30;85.80;;;;;;4882498;29;20112;-72
2022/07/20 04:24:36;;;;;;;11.88;5.50;;;;;;;;;;4882644;29;20044;-73
2022/07/20 04:27:03;;;;;;;9.60;5.07;;;22.60;86.50;;;;;;4882517;29;20151;-73
2022/07/20 04:29:29;;;;;;;16.55;6.55;;;22.10;86.30;;;;;;4882264;29;20040;-73
2022/07/20 04:31:55;;;;;;;9.13;5.30;;;23.10;87.10;;;;;;4899407;29;20036;-73
2022/07/20 04:34:21;;;;;;;10.43;5.20;;;21.30;86.20;;;;;;4882469;29;20076;-73
2022/07/20 04:36:46;;;;;;;9.93;5.70;;;23.00;88.00;;;;;;4882367;29;20095;-73
2022/07/20 04:39:12;;;;;;;10.57;5.93;;;21.30;84.30;;;;;;4881876;29;20045;-73
2022/07/20 04:41:38;;;;;;;12.35;5.22;;;22.40;87.10;;;;;;4898828;29;20079;-73
2022/07/20 04:44:04;;;;;;;14.73;5.75;;;22.20;87.10;;;;;;4898669;29;20068;-72
2022/07/20 04:46:30;;;;;;;10.75;5.20;;;23.20;88.30;;;;;;4898904;29;20040;-72
2022/07/20 04:48:56;;;;;;;10.65;5.38;;;22.90;87.70;;;;;;4900297;29;21413;-73
2022/07/20 04:51:22;;;;;;;8.32;5.85;;;;;;;;;;4898827;29;20041;-72
2022/07/20 04:53:48;;;;;;;10.70;5.47;;;23.40;88.30;;;;;;4898695;29;20051;-72
2022/07/20 04:56:14;;;;;;;19.45;5.30;;;23.30;88.30;;;;;;4898946;29;20040;-72
2022/07/20 04:58:40;;;;;;;11.73;6.03;;;;;;;;;;4881907;29;20044;-73
2022/07/20 05:01:06;;;;;;;10.38;5.43;;;23.30;88.10;;;;;;4898499;29;20417;-72
2022/07/20 05:03:32;;;;;;;10.30;5.40;;;23.30;88.20;;;;;;4881604;29;20040;-73
2022/07/20 05:05:58;;;;;;;13.43;5.18;;;23.60;88.10;;;;;;4898738;29;20037;-73
2022/07/20 05:08:23;;;;;;;14.15;5.40;;;22.80;87.70;;;;;;4881093;29;20049;-73
2022/07/20 05:10:50;;;;;;;7.53;5.18;;;22.30;88.40;;;;;;4880750;29;20065;-73
2022/07/20 05:13:16;;;;;;;7.57;4.95;;;;;;;;;;4878550;29;20047;-73
2022/07/20 05:15:42;;;;;;;10.05;4.97;;;23.40;88.20;;;;;;4894641;29;20119;-73
2022/07/20 05:18:07;;;;;;;10.55;5.93;;;23.40;88.00;;;;;;4879841;29;20534;-73
2022/07/20 05:20:33;;;;;;;9.98;5.55;;;23.40;88.10;;;;;;4879513;29;20040;-73
2022/07/20 05:22:59;;;;;;;12.63;5.55;;;21.50;81.80;;;;;;4894279;29;20056;-73
2022/07/20 05:25:24;;;;;;;12.38;5.25;;;23.30;88.00;;;;;;4885564;29;20044;-73
2022/07/20 05:27:51;;;;;;;12.40;5.60;;;;;;;;;;4893774;29;20093;-73
2022/07/20 05:30:16;;;;;;;12.48;6.05;;;23.00;87.60;;;;;;4875573;29;20055;-73
2022/07/20 05:32:42;;;;;;;7.53;5.60;;;;;;;;;;4893532;29;20040;-73
2022/07/20 05:35:08;;;;;;;11.02;5.90;;;21.80;86.70;;;;;;4892565;29;20037;-73
2022/07/20 05:37:34;;;;;;;10.48;5.30;;;23.10;77.60;;;;;;4876061;29;20131;-73
2022/07/20 05:40:01;;;;;;;15.90;5.53;;;22.40;86.90;;;;;;4873638;29;20059;-73
2022/07/20 05:42:26;;;;;;;10.38;5.43;;;22.00;86.80;;;;;;4892558;29;20055;-73
2022/07/20 05:44:52;;;;;;;9.10;5.70;;;22.20;87.00;;;;;;4878193;29;20037;-73
2022/07/20 05:47:18;;;;;;;15.25;5.88;;;22.20;87.20;;;;;;4880895;29;20045;-73
2022/07/20 05:49:47;;;;;;;10.55;5.55;;;;;;;;;;4878622;29;20041;-73
2022/07/20 05:52:14;;;;;;;14.63;5.90;;;23.40;88.60;;;;;;4879357;29;20127;-73
2022/07/20 05:54:40;;;;;;;12.75;6.30;;;22.30;87.10;;;;;;4880859;29;20043;-73
2022/07/20 05:57:05;;;;;;;81.75;11.68;;;22.90;87.60;;;;;;4908597;29;20040;-73
2022/07/20 05:59:31;;;;;;;15.10;7.45;;;23.30;88.30;;;;;;4881108;29;20382;-72
2022/07/20 06:01:57;;;;;;;34.75;8.55;;;23.30;87.80;;;;;;4905792;29;20127;-72
2022/07/20 06:04:23;;;;;;;11.18;6.13;;;;;;;;;;4897655;29;20076;-72
2022/07/20 06:06:48;;;;;;;13.73;6.07;;;22.40;87.70;;;;;;4880726;29;20072;-73
2022/07/20 06:09:14;;;;;;;15.95;6.28;;;24.20;88.40;;;;;;4894122;29;20108;-73
2022/07/20 06:11:40;;;;;;;13.90;6.53;;;22.50;87.40;;;;;;4875982;29;20147;-73
2022/07/20 06:14:06;;;;;;;9.98;6.93;;;24.40;87.80;;;;;;4894158;29;20040;-73
2022/07/20 06:16:32;;;;;;;18.85;8.85;;;;;;;;;;4877406;29;20465;-73
2022/07/20 06:19:01;;;;;;;14.10;6.95;;;23.10;87.20;;;;;;4893709;29;20039;-73
2022/07/20 06:21:27;;;;;;;16.35;7.78;;;22.80;84.60;;;;;;4876967;29;20139;-73
2022/07/20 06:23:52;;;;;;;21.30;7.80;;;23.20;88.20;;;;;;4898439;29;20557;-73
2022/07/20 06:26:18;;;;;;;15.80;8.07;;;24.50;89.20;;;;;;4893522;29;20124;-73
2022/07/20 06:28:44;;;;;;;25.55;9.82;;;23.90;89.20;;;;;;4877018;29;20058;-73
2022/07/20 06:31:10;;;;;;;21.75;9.35;;;;;;;;;;4892283;29;20056;-73
2022/07/20 06:33:36;;;;;;;21.85;9.18;;;23.10;84.30;;;;;;4874617;29;20075;-73
2022/07/20 06:36:02;;;;;;;14.68;9.27;;;;;;;;;;4860797;29;20130;-73
2022/07/20 06:38:28;;;;;;;16.75;9.07;;;24.20;90.50;;;;;;4899497;29;20052;-73
2022/07/20 06:40:53;;;;;;;23.80;9.57;;;23.90;90.50;;;;;;4876005;29;20116;-73
2022/07/20 06:43:22;;;;;;;24.42;10.52;;;;;;;;;;4876419;29;20036;-73
2022/07/20 06:45:49;;;;;;;22.13;10.23;;;24.00;90.90;;;;;;4861495;29;20128;-73
2022/07/20 06:48:15;;;;;;;17.67;10.38;;;23.50;91.00;;;;;;4877089;29;20131;-73
2022/07/20 06:50:41;;;;;;;20.25;10.73;;;24.50;91.30;;;;;;4893836;29;20044;-73
2022/07/20 06:53:07;;;;;;;24.63;10.90;;;23.90;91.20;;;;;;4876604;29;20049;-73
2022/07/20 06:55:32;;;;;;;24.50;12.75;;;24.90;91.60;;;;;;4876486;29;20095;-73
2022/07/20 06:57:58;;;;;;;21.10;11.43;;;24.60;91.50;;;;;;4869858;29;20100;-73
2022/07/20 07:00:25;;;;;;;37.47;11.88;;;;;;;;;;4876887;29;20059;-73
2022/07/20 07:02:51;;;;;;;26.98;12.70;;;;;;;;;;4893417;29;20115;-73
2022/07/20 07:05:16;;;;;;;20.52;13.00;;;24.60;92.40;;;;;;4877359;29;20043;-73
2022/07/20 07:07:42;;;;;;;26.98;14.05;;;;;;;;;;4885474;29;20405;-73
2022/07/20 07:10:09;;;;;;;26.05;13.85;;;;;;;;;;4876508;29;20052;-73
2022/07/20 07:12:34;;;;;;;23.17;13.40;;;23.40;92.30;;;;;;4898060;29;20077;-73
2022/07/20 07:15:01;;;;;;;28.45;16.80;;;24.40;92.60;;;;;;4876523;29;20052;-73
2022/07/20 07:17:27;;;;;;;35.90;16.48;;;;;;;;;;4892595;29;20036;-73
2022/07/20 07:19:53;;;;;;;39.92;17.35;;;24.90;93.40;;;;;;4901048;29;20037;-73
2022/07/20 07:22:19;;;;;;;43.60;18.75;;;;;;;;;;4877237;29;20044;-73
2022/07/20 07:24:45;;;;;;;41.45;21.25;;;23.60;93.50;;;;;;4860963;29;20048;-73
2022/07/20 07:27:11;;;;;;;38.67;20.08;;;25.00;94.10;;;;;;4876451;29;20067;-73
2022/07/20 07:29:37;;;;;;;47.63;21.48;;;;;;;;;;4861340;29;20048;-72
2022/07/20 07:32:02;;;;;;;43.85;21.80;;;25.20;94.60;;;;;;4892831;29;20131;-73
2022/07/20 07:34:29;;;;;;;46.28;23.45;;;;;;;;;;4892808;29;20124;-73
2022/07/20 07:36:55;;;;;;;44.42;24.67;;;23.60;91.90;;;;;;4876536;29;20068;-73
2022/07/20 07:39:21;;;;;;;43.80;23.25;;;25.30;92.30;;;;;;4877157;29;20463;-73
2022/07/20 07:41:47;;;;;;;47.38;23.65;;;24.60;91.20;;;;;;4874768;29;20052;-73
2022/07/20 07:44:13;;;;;;;46.50;23.67;;;;;;;;;;4899604;29;20049;-73
2022/07/20 07:46:39;;;;;;;45.35;22.70;;;;;;;;;;4876751;29;20037;-73
2022/07/20 07:49:05;;;;;;;47.25;23.58;;;23.70;92.00;;;;;;4889224;29;20395;-74
2022/07/20 07:51:32;;;;;;;48.63;25.73;;;;;;;;;;4896639;29;20048;-74
2022/07/20 07:53:58;;;;;;;40.40;24.70;;;25.60;95.20;;;;;;4891624;29;20139;-73
2022/07/20 07:56:23;;;;;;;44.38;23.75;;;25.00;95.00;;;;;;4879435;29;20059;-74
2022/07/20 07:58:50;;;;;;;43.10;25.15;;;24.90;90.70;;;;;;4879416;29;20470;-74
2022/07/20 08:01:15;;;;;;;42.15;26.25;;;25.60;91.30;;;;;;4880179;29;20521;-74
2022/07/20 08:03:41;;;;;;;46.35;25.40;;;25.50;94.80;;;;;;4879458;29;20048;-74
2022/07/20 08:06:07;;;;;;;53.85;28.40;;;25.80;94.90;;;;;;4882043;29;20048;-74
2022/07/20 08:08:33;;;;;;;50.20;26.10;;;25.20;94.80;;;;;;4896758;29;20036;-73
2022/07/20 08:10:59;;;;;;;51.25;27.73;;;25.80;95.10;;;;;;4879548;29;20056;-73
2022/07/20 08:13:26;;;;;;;44.85;26.15;;;25.80;94.80;;;;;;4879102;29;20425;-73
2022/07/20 08:15:51;;;;;;;52.17;28.08;;;24.90;94.30;;;;;;4879021;29;20497;-74
2022/07/20 08:18:17;;;;;;;46.67;26.40;;;;;;;;;;4864312;29;20107;-70
2022/07/20 08:20:43;;;;;;;59.10;26.55;;;25.20;94.30;;;;;;4881442;29;20045;-72
2022/07/20 08:23:09;;;;;;;48.40;26.42;;;;;;;;;;4866566;29;20052;-73
2022/07/20 08:25:35;;;;;;;53.47;28.35;;;26.00;94.20;;;;;;4883394;29;20115;-73
2022/07/20 08:28:20;;;;;;;52.42;28.23;;;24.60;91.40;;;;;;4881762;29;20474;-73
2022/07/20 08:30:49;;;;;;;44.85;28.92;;;26.20;94.10;;;;;;4881623;29;20399;-73
2022/07/20 08:33:15;;;;;;;46.38;26.83;;;;;;;;;;4882077;29;20100;-73
2022/07/20 08:35:42;;;;;;;47.40;27.13;;;25.50;89.40;;;;;;4882470;29;20450;-73
2022/07/20 08:38:09;;;;;;;44.47;28.52;;;26.20;91.50;;;;;;4898806;29;20047;-73
2022/07/20 08:40:35;;;;;;;52.90;27.98;;;26.20;92.90;;;;;;4898501;29;20100;-73
2022/07/20 08:43:01;;;;;;;54.08;29.58;;;26.40;90.40;;;;;;4908207;29;20441;-73
2022/07/20 08:45:28;;;;;;;50.40;29.83;;;25.30;93.20;;;;;;4882208;29;20045;-73
2022/07/20 08:47:57;;;;;;;62.40;30.08;;;26.40;91.90;;;;;;4881509;29;20048;-73
2022/07/20 08:50:25;;;;;;;49.38;29.52;;;26.40;93.20;;;;;;4879653;29;20494;-73
2022/07/20 08:52:52;;;;;;;66.05;30.65;;;25.30;92.90;;;;;;4882110;29;20052;-73
2022/07/20 08:55:18;;;;;;;58.22;28.83;;;26.30;93.20;;;;;;4881915;29;20048;-73
2022/07/20 08:57:44;;;;;;;55.85;28.75;;;25.90;93.00;;;;;;4881206;29;20049;-73
2022/07/20 09:00:10;;;;;;;50.67;27.13;;;26.30;91.90;;;;;;4900638;29;20513;-73
2022/07/20 09:03:02;;;;;;;57.17;27.45;;;26.20;92.90;;;;;;4893547;29;20048;-73
2022/07/20 09:05:30;;;;;;;48.75;26.02;;;26.20;92.80;;;;;;4881371;29;20092;-72
2022/07/20 09:07:58;;;;;;;43.75;24.10;;;25.60;87.10;;;;;;4880767;29;20085;-72
2022/07/20 09:10:33;;;;;;;35.00;22.35;;;26.20;87.70;;;;;;4897962;29;20148;-72
2022/07/20 09:13:04;;;;;;;45.83;24.33;;;25.70;85.10;;;;;;4906704;29;20049;-72
2022/07/20 09:15:30;;;;;;;36.58;19.77;;;26.00;92.40;;;;;;4866268;29;20048;-73
2022/07/20 09:18:17;;;;;;;37.42;19.98;;;25.90;83.50;;;;;;4865353;29;20467;-73
2022/07/20 09:21:04;;;;;;;39.10;19.60;;;25.50;91.50;;;;;;4881364;29;20040;-73
2022/07/20 09:23:33;;;;;;;35.10;18.35;;;25.60;91.60;;;;;;4902712;29;20036;-73
2022/07/20 09:26:07;;;;;;;35.45;19.35;;;26.10;82.70;;;;;;4912163;29;20111;-73
2022/07/20 09:28:43;;;;;;;40.38;20.10;;;25.60;91.20;;;;;;4881456;29;20037;-73
2022/07/20 09:31:13;;;;;;;42.78;20.15;;;26.00;84.90;;;;;;4881002;29;20048;-73
2022/07/20 09:33:46;;;;;;;45.60;20.77;;;26.00;91.10;;;;;;4907784;29;20048;-73
2022/07/20 09:36:13;;;;;;;35.53;20.23;;;;;;;;;;4880271;29;20140;-73
2022/07/20 09:38:40;;;;;;;39.13;20.05;;;26.90;84.90;;;;;;4897547;29;20044;-73
2022/07/20 09:41:25;;;;;;;34.30;19.05;;;26.70;90.50;;;;;;4897499;29;20120;-73
2022/07/20 09:43:51;;;;;;;33.00;19.08;;;26.90;90.40;;;;;;4880765;29;20040;-73
2022/07/20 09:46:23;;;;;;;27.13;16.98;;;27.10;90.30;;;;;;4910895;29;20100;-73
2022/07/20 09:48:51;;;;;;;25.92;15.10;;;26.70;80.40;;;;;;4881168;29;20434;-73
2022/07/20 09:51:41;;;;;;;32.28;14.60;;;26.20;87.10;;;;;;4878578;29;20041;-73
2022/07/20 09:54:12;;;;;;;29.42;14.70;;;26.20;87.10;;;;;;4896361;29;20521;-73
2022/07/20 09:56:41;;;;;;;23.65;14.50;;;26.80;78.40;;;;;;4897335;29;20036;-73
2022/07/20 09:59:11;;;;;;;29.77;14.45;;;27.00;86.40;;;;;;4880567;29;20104;-73
2022/07/20 10:01:48;;;;;;;28.55;14.85;;;26.60;85.60;;;;;;4880845;29;20036;-73
2022/07/20 10:04:15;;;;;;;29.50;14.68;;;27.30;86.30;;;;;;4880746;29;20442;-73
2022/07/20 10:06:43;;;;;;;32.45;15.20;;;27.60;79.10;;;;;;4881236;29;20100;-73
2022/07/20 10:09:10;;;;;;;36.30;13.93;;;26.80;85.60;;;;;;4899484;29;20069;-73
2022/07/20 10:11:36;;;;;;;29.10;12.27;;;27.60;86.10;;;;;;4880054;29;20488;-73
2022/07/20 10:14:04;;;;;;;26.13;11.68;;;26.60;84.60;;;;;;4880644;29;20404;-74
2022/07/20 10:16:46;;;;;;;20.15;10.40;;;27.40;77.80;;;;;;4910839;29;20143;-74
2022/07/20 10:19:12;;;;;;;20.55;10.90;;;27.60;85.00;;;;;;4897471;29;20385;-74
2022/07/20 10:21:46;;;;;;;25.70;12.00;;;27.70;84.80;;;;;;4880015;29;20048;-74
2022/07/20 10:24:27;;;;;;;37.10;11.95;;;27.20;74.40;;;;;;4880407;29;20049;-73
2022/07/20 10:26:56;;;;;;;30.40;12.95;;;27.80;85.50;;;;;;4880125;29;20100;-74
2022/07/20 10:29:45;;;;;;;29.83;12.30;;;27.90;85.40;;;;;;4880565;29;20076;-74
2022/07/20 10:32:14;;;;;;;27.25;11.27;;;27.40;76.60;;;;;;4861519;29;20554;-74
2022/07/20 10:34:45;;;;;;;26.70;11.50;;;27.10;83.70;;;;;;4895240;29;20087;-74
2022/07/20 10:37:21;;;;;;;32.60;12.13;;;27.30;83.80;;;;;;4876992;29;20478;-74
2022/07/20 10:39:47;;;;;;;24.10;9.77;;;29.50;75.40;;;;;;4880146;29;20053;-74
2022/07/20 10:42:31;;;;;;;20.20;10.30;;;28.20;83.40;;;;;;4880672;29;20043;-74
2022/07/20 10:45:19;;;;;;;26.70;9.50;;;28.30;83.40;;;;;;4879086;29;20041;-74
2022/07/20 10:48:01;;;;;;;23.00;9.65;;;28.40;82.40;;;;;;4885039;29;20096;-74
2022/07/20 10:50:38;;;;;;;26.15;11.43;;;27.60;75.20;;;;;;4860378;29;20044;-74
2022/07/20 10:53:13;;;;;;;23.85;12.07;;;27.80;69.90;;;;;;4874065;29;20048;-75
2022/07/20 10:55:38;;;;;;;23.98;11.65;;;28.30;80.60;;;;;;4894987;29;20184;-73
2022/07/20 10:58:15;;;;;;;21.35;10.93;;;27.70;69.80;;;;;;4880319;29;20551;-73
2022/07/20 11:00:54;;;;;;;26.90;12.38;;;28.20;80.70;;;;;;4878343;29;20087;-73
2022/07/20 11:03:27;;;;;;;22.33;11.35;;;28.20;72.70;;;;;;4879817;29;20041;-73
2022/07/20 11:06:16;;;;;;;29.02;12.90;;;28.40;80.70;;;;;;4896843;29;20044;-73
2022/07/20 11:09:02;;;;;;;26.95;14.05;;;28.60;80.40;;;;;;4880035;29;20109;-73
2022/07/20 11:11:36;;;;;;;29.30;13.57;;;28.60;80.10;;;;;;4875540;29;20475;-73
2022/07/20 11:14:05;;;;;;;26.50;14.05;;;28.50;72.90;;;;;;4874603;29;20049;-73
2022/07/20 11:16:32;;;;;;;22.13;12.27;;;27.70;79.70;;;;;;4874542;29;20067;-73
2022/07/20 11:18:59;;;;;;;24.48;11.43;;;28.20;71.80;;;;;;4893147;29;20097;-73
2022/07/20 11:21:31;;;;;;;27.85;11.88;;;28.00;69.50;;;;;;4878131;29;20052;-73
2022/07/20 11:23:57;;;;;;;30.10;12.07;;;28.80;74.90;;;;;;4898158;29;20051;-73
2022/07/20 11:26:23;;;;;;;23.45;10.45;;;28.80;75.10;;;;;;4898053;29;20029;-73
2022/07/20 11:28:54;;;;;;;21.58;10.77;;;28.50;69.10;;;;;;4878876;29;20040;-73
2022/07/20 11:31:25;;;;;;;20.77;11.43;;;28.50;71.00;;;;;;4881734;29;20052;-73
2022/07/20 11:33:53;;;;;;;18.35;10.32;;;28.10;76.00;;;;;;4867426;29;20045;-74
2022/07/20 11:36:28;;;;;;;18.15;11.02;;;29.00;78.20;;;;;;4883301;29;20052;-74
2022/07/20 11:38:59;;;;;;;19.65;10.75;;;28.90;74.00;;;;;;4899842;29;20044;-74
2022/07/20 11:41:36;;;;;;;17.67;9.98;;;28.70;70.10;;;;;;4900238;29;20049;-74
2022/07/20 11:44:04;;;;;;;19.30;9.63;;;29.20;78.40;;;;;;4899659;29;20039;-74
2022/07/20 11:46:38;;;;;;;18.90;9.07;;;29.30;76.90;;;;;;4883352;29;20438;-75
2022/07/20 11:49:06;;;;;;;20.75;8.13;;;28.50;76.00;;;;;;4886476;29;20385;-75
2022/07/20 11:51:35;;;;;;;15.00;9.00;;;28.70;68.20;;;;;;4882985;29;20119;-75
2022/07/20 11:54:02;;;;;;;14.30;7.40;;;29.10;76.30;;;;;;4882860;29;20067;-75
2022/07/20 11:56:29;;;;;;;18.13;7.88;;;29.00;76.40;;;;;;4864872;29;20048;-75
2022/07/20 11:58:57;;;;;;;17.83;6.05;;;28.20;75.80;;;;;;4882688;29;20056;-75
2022/07/20 12:01:31;;;;;;;10.98;4.38;;;29.00;64.80;;;;;;4882575;29;20120;-77
2022/07/20 12:03:59;;;;;;;12.07;4.47;;;29.00;67.20;;;;;;4882868;29;20041;-75
2022/07/20 12:06:29;;;;;;;10.95;5.38;;;28.80;75.00;;;;;;4899560;29;20040;-75
2022/07/20 12:09:18;;;;;;;10.85;5.25;;;29.30;75.20;;;;;;4877826;29;20096;-75
2022/07/20 12:11:53;;;;;;;8.77;4.30;;;29.00;63.60;;;;;;4865285;29;20498;-75
2022/07/20 12:14:34;;;;;;;11.93;4.97;;;29.10;63.70;;;;;;4866924;29;20072;-75
2022/07/20 12:17:35;;;;;;;8.35;5.80;;;28.70;73.70;;;;;;4882611;29;20120;-75
2022/07/20 12:20:04;;;;;;;13.13;7.75;;;29.60;74.00;;;;;;4812017;29;20111;-75
2022/07/20 12:22:32;;;;;;;16.45;9.40;;;29.50;73.80;;;;;;4888518;29;20112;-75
2022/07/20 12:25:05;;;;;;;14.60;9.45;;;29.30;63.50;;;;;;4867020;29;20112;-74
2022/07/20 12:27:33;;;;;;;16.05;9.50;;;29.30;74.30;;;;;;4865750;29;20076;-75
2022/07/20 12:30:00;;;;;;;18.33;9.43;;;28.90;73.90;;;;;;4879113;29;20402;-75
2022/07/20 12:32:32;;;;;;;16.27;9.02;;;29.50;66.50;;;;;;4882003;29;20485;-75
2022/07/20 12:34:59;;;;;;;19.63;9.75;;;29.60;74.30;;;;;;4866859;29;20045;-75
2022/07/20 12:37:49;;;;;;;13.88;9.35;;;29.60;65.40;;;;;;4882202;29;20060;-75
2022/07/20 12:40:32;;;;;;;13.45;9.13;;;29.40;73.90;;;;;;4882080;29;20051;-75
2022/07/20 12:42:58;;;;;;;13.15;8.13;;;;;;;;;;4866889;29;20044;-75
2022/07/20 12:45:24;;;;;;;14.18;9.35;;;;;;;;;;4882239;29;20375;-74
2022/07/20 12:47:50;;;;;;;17.73;8.93;;;;;;;;;;4872802;29;20080;-74
2022/07/20 12:50:16;;;;;;;16.60;9.77;;;29.60;73.40;;;;;;4882055;29;20123;-75
2022/07/20 12:52:42;;;;;;;17.60;8.43;;;30.20;74.00;;;;;;4866625;29;20558;-75
2022/07/20 12:55:08;;;;;;;19.08;8.77;;;30.30;74.10;;;;;;4898299;29;20569;-74
2022/07/20 12:57:33;;;;;;;18.90;9.27;;;30.40;74.20;;;;;;4866567;29;20040;-74
2022/07/20 12:59:59;;;;;;;16.23;9.38;;;;;;;;;;4881823;29;20067;-74